sensor_id;sensor_type;location;lat;lon;timestamp;pressure;altitude;pressure_sealevel;temperature;humidity
72548;BME280;60570;50.848;6.776;2023-04-08T00:00:42;101094.25;;;10.50;68.68
72548;BME280;60570;50.848;6.776;2023-04-08T00:01:44;101089.03;;;10.48;68.68
72548;BME280;60570;50.848;6.776;2023-04-08T00:02:46;101087.09;;;10.49;68.50
72548;BME280;60570;50.848;6.776;2023-04-08T00:03:46;101089.34;;;10.47;68.91
72548;BME280;60570;50.848;6.776;2023-04-08T00:04:48;101089.03;;;10.48;68.74
72548;BME280;60570;50.848;6.776;2023-04-08T00:05:49;101091.81;;;10.48;68.43
72548;BME280;60570;50.848;6.776;2023-04-08T00:06:50;101093.75;;;10.48;68.77
72548;BME280;60570;50.848;6.776;2023-04-08T00:07:51;101095.41;;;10.49;68.83
72548;BME280;60570;50.848;6.776;2023-04-08T00:08:53;101096.53;;;10.48;68.78
72548;BME280;60570;50.848;6.776;2023-04-08T00:09:55;101093.75;;;10.48;68.80
72548;BME280;60570;50.848;6.776;2023-04-08T00:10:57;101093.75;;;10.48;68.60
72548;BME280;60570;50.848;6.776;2023-04-08T00:11:57;101090.97;;;10.48;68.84
72548;BME280;60570;50.848;6.776;2023-04-08T00:13:00;101098.50;;;10.47;68.75
72548;BME280;60570;50.848;6.776;2023-04-08T00:14:02;101094.91;;;10.47;68.80
72548;BME280;60570;50.848;6.776;2023-04-08T00:15:05;101094.09;;;10.46;68.89
72548;BME280;60570;50.848;6.776;2023-04-08T00:16:06;101094.91;;;10.47;68.69
72548;BME280;60570;50.848;6.776;2023-04-08T00:17:08;101101.59;;;10.46;68.48
72548;BME280;60570;50.848;6.776;2023-04-08T00:18:08;101096.88;;;10.46;68.85
72548;BME280;60570;50.848;6.776;2023-04-08T00:19:10;101099.66;;;10.46;68.78
72548;BME280;60570;50.848;6.776;2023-04-08T00:20:12;101086.09;;;10.45;68.95
72548;BME280;60570;50.848;6.776;2023-04-08T00:21:13;101092.44;;;10.45;68.84
72548;BME280;60570;50.848;6.776;2023-04-08T00:22:17;101094.41;;;10.45;68.74
72548;BME280;60570;50.848;6.776;2023-04-08T00:23:19;101089.19;;;10.43;68.74
72548;BME280;60570;50.848;6.776;2023-04-08T00:24:20;101093.59;;;10.44;69.01
72548;BME280;60570;50.848;6.776;2023-04-08T00:25:23;101090.81;;;10.44;68.89
72548;BME280;60570;50.848;6.776;2023-04-08T00:26:24;101097.53;;;10.43;68.96
72548;BME280;60570;50.848;6.776;2023-04-08T00:27:26;101104.69;;;10.44;68.59
72548;BME280;60570;50.848;6.776;2023-04-08T00:28:27;101095.53;;;10.44;69.11
72548;BME280;60570;50.848;6.776;2023-04-08T00:29:29;101095.53;;;10.44;69.06
72548;BME280;60570;50.848;6.776;2023-04-08T00:30:30;101095.88;;;10.42;68.69
72548;BME280;60570;50.848;6.776;2023-04-08T00:31:32;101095.53;;;10.44;68.70
72548;BME280;60570;50.848;6.776;2023-04-08T00:32:32;101101.91;;;10.44;68.96
72548;BME280;60570;50.848;6.776;2023-04-08T00:33:34;101095.53;;;10.44;68.86
72548;BME280;60570;50.848;6.776;2023-04-08T00:34:36;101099.16;;;10.44;69.09
72548;BME280;60570;50.848;6.776;2023-04-08T00:35:38;101105.53;;;10.45;68.93
72548;BME280;60570;50.848;6.776;2023-04-08T00:36:38;101103.53;;;10.45;68.73
72548;BME280;60570;50.848;6.776;2023-04-08T00:37:40;101100.47;;;10.47;68.60
72548;BME280;60570;50.848;6.776;2023-04-08T00:38:41;101099.16;;;10.44;68.96
72548;BME280;60570;50.848;6.776;2023-04-08T00:39:43;101097.19;;;10.45;68.72
72548;BME280;60570;50.848;6.776;2023-04-08T00:40:45;101100.75;;;10.45;68.95
72548;BME280;60570;50.848;6.776;2023-04-08T00:41:47;101104.69;;;10.44;68.84
72548;BME280;60570;50.848;6.776;2023-04-08T00:42:47;101096.69;;;10.43;69.00
72548;BME280;60570;50.848;6.776;2023-04-08T00:43:49;101099.47;;;10.43;68.52
72548;BME280;60570;50.848;6.776;2023-04-08T00:44:50;101100.28;;;10.43;68.82
72548;BME280;60570;50.848;6.776;2023-04-08T00:45:51;101095.53;;;10.44;68.75
72548;BME280;60570;50.848;6.776;2023-04-08T00:46:52;101099.97;;;10.45;68.62
72548;BME280;60570;50.848;6.776;2023-04-08T00:47:55;101099.16;;;10.44;68.54
72548;BME280;60570;50.848;6.776;2023-04-08T00:48:56;101104.69;;;10.44;68.95
72548;BME280;60570;50.848;6.776;2023-04-08T00:49:58;101103.88;;;10.44;68.72
72548;BME280;60570;50.848;6.776;2023-04-08T00:50:58;101098.66;;;10.42;68.64
72548;BME280;60570;50.848;6.776;2023-04-08T00:52:00;101101.41;;;10.42;68.90
72548;BME280;60570;50.848;6.776;2023-04-08T00:53:01;101102.25;;;10.43;68.68
72548;BME280;60570;50.848;6.776;2023-04-08T00:54:04;101104.19;;;10.42;68.89
72548;BME280;60570;50.848;6.776;2023-04-08T00:55:05;101106.16;;;10.42;68.65
72548;BME280;60570;50.848;6.776;2023-04-08T00:56:09;101110.59;;;10.43;68.46
72548;BME280;60570;50.848;6.776;2023-04-08T00:57:10;101110.91;;;10.41;68.96
72548;BME280;60570;50.848;6.776;2023-04-08T00:58:12;101105.34;;;10.41;68.69
72548;BME280;60570;50.848;6.776;2023-04-08T00:59:13;101106.47;;;10.40;68.82
72548;BME280;60570;50.848;6.776;2023-04-08T01:00:15;101111.19;;;10.40;68.58
72548;BME280;60570;50.848;6.776;2023-04-08T01:01:21;101110.41;;;10.39;69.04
72548;BME280;60570;50.848;6.776;2023-04-08T01:02:30;101103.69;;;10.40;68.73
72548;BME280;60570;50.848;6.776;2023-04-08T01:03:41;101100.91;;;10.40;68.50
72548;BME280;60570;50.848;6.776;2023-04-08T01:04:52;101108.13;;;10.41;68.64
72548;BME280;60570;50.848;6.776;2023-04-08T01:05:59;101110.91;;;10.41;68.64
72548;BME280;60570;50.848;6.776;2023-04-08T01:07:12;101113.19;;;10.39;68.82
72548;BME280;60570;50.848;6.776;2023-04-08T01:08:15;101108.13;;;10.41;68.64
72548;BME280;60570;50.848;6.776;2023-04-08T01:09:19;101115.31;;;10.42;68.57
72548;BME280;60570;50.848;6.776;2023-04-08T01:10:22;101112.53;;;10.42;68.46
72548;BME280;60570;50.848;6.776;2023-04-08T01:11:31;101104.19;;;10.42;68.57
72548;BME280;60570;50.848;6.776;2023-04-08T01:12:36;101106.16;;;10.42;68.72
72548;BME280;60570;50.848;6.776;2023-04-08T01:13:41;101110.06;;;10.41;68.77
72548;BME280;60570;50.848;6.776;2023-04-08T01:14:46;101110.06;;;10.41;68.96
72548;BME280;60570;50.848;6.776;2023-04-08T01:15:49;101105.66;;;10.40;68.35
72548;BME280;60570;50.848;6.776;2023-04-08T01:16:49;101107.31;;;10.41;68.80
72548;BME280;60570;50.848;6.776;2023-04-08T01:17:52;101109.25;;;10.40;68.96
72548;BME280;60570;50.848;6.776;2023-04-08T01:18:54;101104.84;;;10.39;68.72
72548;BME280;60570;50.848;6.776;2023-04-08T01:20:00;101107.31;;;10.41;68.82
72548;BME280;60570;50.848;6.776;2023-04-08T01:21:03;101107.31;;;10.41;68.58
72548;BME280;60570;50.848;6.776;2023-04-08T01:22:14;101106.47;;;10.40;68.58
72548;BME280;60570;50.848;6.776;2023-04-08T01:23:24;101105.66;;;10.40;68.63
72548;BME280;60570;50.848;6.776;2023-04-08T01:24:32;101104.03;;;10.39;68.60
72548;BME280;60570;50.848;6.776;2023-04-08T01:25:36;101107.94;;;10.38;68.56
72548;BME280;60570;50.848;6.776;2023-04-08T01:26:40;101103.19;;;10.38;68.79
72548;BME280;60570;50.848;6.776;2023-04-08T01:27:42;101103.19;;;10.38;68.76
72548;BME280;60570;50.848;6.776;2023-04-08T01:28:44;101106.81;;;10.39;68.89
72548;BME280;60570;50.848;6.776;2023-04-08T01:29:46;101108.44;;;10.40;68.82
72548;BME280;60570;50.848;6.776;2023-04-08T01:30:49;101111.19;;;10.40;68.95
72548;BME280;60570;50.848;6.776;2023-04-08T01:31:52;101106.47;;;10.40;68.51
72548;BME280;60570;50.848;6.776;2023-04-08T01:32:55;101108.75;;;10.38;68.56
72548;BME280;60570;50.848;6.776;2023-04-08T01:33:58;101109.56;;;10.39;68.69
72548;BME280;60570;50.848;6.776;2023-04-08T01:35:02;101108.75;;;10.38;68.72
72548;BME280;60570;50.848;6.776;2023-04-08T01:36:04;101107.94;;;10.38;68.94
72548;BME280;60570;50.848;6.776;2023-04-08T01:37:07;101117.09;;;10.38;69.17
72548;BME280;60570;50.848;6.776;2023-04-08T01:38:09;101110.69;;;10.38;68.94
72548;BME280;60570;50.848;6.776;2023-04-08T01:39:12;101110.69;;;10.38;68.69
72548;BME280;60570;50.848;6.776;2023-04-08T01:40:14;101102.38;;;10.38;69.21
72548;BME280;60570;50.848;6.776;2023-04-08T01:41:18;101107.13;;;10.37;68.87
72548;BME280;60570;50.848;6.776;2023-04-08T01:42:23;101101.56;;;10.37;68.62
72548;BME280;60570;50.848;6.776;2023-04-08T01:43:26;101118.53;;;10.36;68.67
72548;BME280;60570;50.848;6.776;2023-04-08T01:44:28;101110.69;;;10.38;68.81
72548;BME280;60570;50.848;6.776;2023-04-08T01:45:32;101104.66;;;10.36;69.18
72548;BME280;60570;50.848;6.776;2023-04-08T01:46:33;101107.94;;;10.38;68.95
72548;BME280;60570;50.848;6.776;2023-04-08T01:47:37;101107.94;;;10.38;68.96
72548;BME280;60570;50.848;6.776;2023-04-08T01:48:39;101105.16;;;10.38;68.64
72548;BME280;60570;50.848;6.776;2023-04-08T01:49:42;101109.91;;;10.37;69.09
72548;BME280;60570;50.848;6.776;2023-04-08T01:50:44;101105.16;;;10.38;68.88
72548;BME280;60570;50.848;6.776;2023-04-08T01:51:47;101102.69;;;10.36;68.94
72548;BME280;60570;50.848;6.776;2023-04-08T01:52:49;101107.94;;;10.38;68.74
72548;BME280;60570;50.848;6.776;2023-04-08T01:53:53;101105.47;;;10.36;68.83
72548;BME280;60570;50.848;6.776;2023-04-08T01:54:53;101108.25;;;10.36;68.77
72548;BME280;60570;50.848;6.776;2023-04-08T01:55:57;101107.75;;;10.34;69.11
72548;BME280;60570;50.848;6.776;2023-04-08T01:57:03;101111.69;;;10.33;69.25
72548;BME280;60570;50.848;6.776;2023-04-08T01:58:11;101110.84;;;10.33;68.91
72548;BME280;60570;50.848;6.776;2023-04-08T01:59:15;101115.56;;;10.32;69.19
72548;BME280;60570;50.848;6.776;2023-04-08T02:00:20;101119.19;;;10.33;69.19
72548;BME280;60570;50.848;6.776;2023-04-08T02:01:24;101113.63;;;10.33;68.99
72548;BME280;60570;50.848;6.776;2023-04-08T02:02:27;101116.41;;;10.33;68.77
72548;BME280;60570;50.848;6.776;2023-04-08T02:03:28;101117.53;;;10.32;69.28
72548;BME280;60570;50.848;6.776;2023-04-08T02:04:30;101120.31;;;10.32;69.01
72548;BME280;60570;50.848;6.776;2023-04-08T02:05:31;101116.41;;;10.33;68.77
72548;BME280;60570;50.848;6.776;2023-04-08T02:06:32;101117.53;;;10.32;69.23
72548;BME280;60570;50.848;6.776;2023-04-08T02:07:33;101107.25;;;10.32;69.14
72548;BME280;60570;50.848;6.776;2023-04-08T02:08:35;101110.03;;;10.32;68.91
72548;BME280;60570;50.848;6.776;2023-04-08T02:09:36;101122.28;;;10.31;68.90
72548;BME280;60570;50.848;6.776;2023-04-08T02:10:38;101125.06;;;10.31;69.09
72548;BME280;60570;50.848;6.776;2023-04-08T02:11:39;101111.97;;;10.32;69.12
72548;BME280;60570;50.848;6.776;2023-04-08T02:12:41;101116.41;;;10.33;69.08
72548;BME280;60570;50.848;6.776;2023-04-08T02:13:44;101123.91;;;10.32;68.85
72548;BME280;60570;50.848;6.776;2023-04-08T02:14:46;101110.84;;;10.33;69.11
72548;BME280;60570;50.848;6.776;2023-04-08T02:15:51;101109.19;;;10.32;68.84
72548;BME280;60570;50.848;6.776;2023-04-08T02:17:02;101118.34;;;10.32;68.98
72548;BME280;60570;50.848;6.776;2023-04-08T02:18:10;101115.56;;;10.32;68.80
72548;BME280;60570;50.848;6.776;2023-04-08T02:19:17;101115.56;;;10.32;68.81
72548;BME280;60570;50.848;6.776;2023-04-08T02:20:22;101119.19;;;10.33;69.00
72548;BME280;60570;50.848;6.776;2023-04-08T02:21:37;101127.50;;;10.33;68.68
72548;BME280;60570;50.848;6.776;2023-04-08T02:22:46;101121.13;;;10.32;69.26
72548;BME280;60570;50.848;6.776;2023-04-08T02:23:49;101118.69;;;10.31;69.19
72548;BME280;60570;50.848;6.776;2023-04-08T02:24:51;101120.31;;;10.32;68.81
72548;BME280;60570;50.848;6.776;2023-04-08T02:25:54;101120.31;;;10.32;68.92
72548;BME280;60570;50.848;6.776;2023-04-08T02:26:56;101122.28;;;10.31;69.18
72548;BME280;60570;50.848;6.776;2023-04-08T02:27:59;101118.69;;;10.31;68.85
72548;BME280;60570;50.848;6.776;2023-04-08T02:29:04;101120.63;;;10.30;69.09
72548;BME280;60570;50.848;6.776;2023-04-08T02:30:07;101126.19;;;10.30;68.86
72548;BME280;60570;50.848;6.776;2023-04-08T02:31:11;101126.19;;;10.30;68.86
72548;BME280;60570;50.848;6.776;2023-04-08T02:32:13;101122.63;;;10.30;69.02
72548;BME280;60570;50.848;6.776;2023-04-08T02:33:17;101129.78;;;10.31;69.10
72548;BME280;60570;50.848;6.776;2023-04-08T02:34:20;101127.00;;;10.31;68.85
72548;BME280;60570;50.848;6.776;2023-04-08T02:35:21;101128.63;;;10.32;69.01
72548;BME280;60570;50.848;6.776;2023-04-08T02:36:24;101122.28;;;10.31;68.83
72548;BME280;60570;50.848;6.776;2023-04-08T02:37:27;101125.06;;;10.31;68.70
72548;BME280;60570;50.848;6.776;2023-04-08T02:38:29;101126.69;;;10.32;68.66
72548;BME280;60570;50.848;6.776;2023-04-08T02:39:30;101125.56;;;10.33;68.75
72548;BME280;60570;50.848;6.776;2023-04-08T02:40:33;101121.13;;;10.32;68.93
72548;BME280;60570;50.848;6.776;2023-04-08T02:41:34;101127.00;;;10.31;68.70
72548;BME280;60570;50.848;6.776;2023-04-08T02:42:36;101125.06;;;10.31;68.85
72548;BME280;60570;50.848;6.776;2023-04-08T02:43:37;101125.84;;;10.32;68.81
72548;BME280;60570;50.848;6.776;2023-04-08T02:44:40;101124.56;;;10.29;68.75
72548;BME280;60570;50.848;6.776;2023-04-08T02:45:41;101127.00;;;10.31;69.03
72548;BME280;60570;50.848;6.776;2023-04-08T02:46:43;101126.50;;;10.29;69.06
72548;BME280;60570;50.848;6.776;2023-04-08T02:47:44;101125.38;;;10.30;68.82
72548;BME280;60570;50.848;6.776;2023-04-08T02:48:46;101131.22;;;10.28;68.78
72548;BME280;60570;50.848;6.776;2023-04-08T02:49:46;101132.91;;;10.29;69.01
72548;BME280;60570;50.848;6.776;2023-04-08T02:50:51;101131.22;;;10.28;68.99
72548;BME280;60570;50.848;6.776;2023-04-08T02:51:52;101134.84;;;10.29;68.87
72548;BME280;60570;50.848;6.776;2023-04-08T02:52:54;101132.91;;;10.29;68.92
72548;BME280;60570;50.848;6.776;2023-04-08T02:53:55;101133.72;;;10.30;68.94
72548;BME280;60570;50.848;6.776;2023-04-08T02:54:56;101132.91;;;10.29;68.72
72548;BME280;60570;50.848;6.776;2023-04-08T02:55:57;101133.72;;;10.30;69.07
72548;BME280;60570;50.848;6.776;2023-04-08T02:56:59;101131.22;;;10.28;68.75
72548;BME280;60570;50.848;6.776;2023-04-08T02:57:59;101131.22;;;10.28;69.09
72548;BME280;60570;50.848;6.776;2023-04-08T02:59:01;101129.63;;;10.27;69.01
72548;BME280;60570;50.848;6.776;2023-04-08T03:00:04;101134.00;;;10.28;68.96
72548;BME280;60570;50.848;6.776;2023-04-08T03:01:07;101133.22;;;10.28;69.02
72548;BME280;60570;50.848;6.776;2023-04-08T03:02:08;101134.34;;;10.27;69.00
72548;BME280;60570;50.848;6.776;2023-04-08T03:03:10;101133.50;;;10.26;69.27
72548;BME280;60570;50.848;6.776;2023-04-08T03:04:10;101136.28;;;10.26;69.10
72548;BME280;60570;50.848;6.776;2023-04-08T03:05:12;101131.56;;;10.27;69.20
72548;BME280;60570;50.848;6.776;2023-04-08T03:06:13;101137.13;;;10.27;69.08
72548;BME280;60570;50.848;6.776;2023-04-08T03:07:15;101126.34;;;10.25;69.21
72548;BME280;60570;50.848;6.776;2023-04-08T03:08:15;101136.28;;;10.26;68.96
72548;BME280;60570;50.848;6.776;2023-04-08T03:09:17;101132.22;;;10.24;69.07
72548;BME280;60570;50.848;6.776;2023-04-08T03:10:17;101132.22;;;10.24;69.31
72548;BME280;60570;50.848;6.776;2023-04-08T03:11:19;101138.25;;;10.26;69.18
72548;BME280;60570;50.848;6.776;2023-04-08T03:12:21;101129.13;;;10.25;68.97
72548;BME280;60570;50.848;6.776;2023-04-08T03:13:22;101129.94;;;10.26;69.00
72548;BME280;60570;50.848;6.776;2023-04-08T03:14:23;101126.00;;;10.27;68.97
72548;BME280;60570;50.848;6.776;2023-04-08T03:15:26;101134.66;;;10.25;69.12
72548;BME280;60570;50.848;6.776;2023-04-08T03:16:27;101129.13;;;10.25;69.36
72548;BME280;60570;50.848;6.776;2023-04-08T03:17:29;101129.94;;;10.26;69.04
72548;BME280;60570;50.848;6.776;2023-04-08T03:18:32;101131.06;;;10.25;69.17
72548;BME280;60570;50.848;6.776;2023-04-08T03:19:34;101125.81;;;10.23;69.37
72548;BME280;60570;50.848;6.776;2023-04-08T03:20:35;101127.16;;;10.26;69.09
72548;BME280;60570;50.848;6.776;2023-04-08T03:21:36;101130.22;;;10.24;69.21
72548;BME280;60570;50.848;6.776;2023-04-08T03:22:37;101129.13;;;10.25;69.00
72548;BME280;60570;50.848;6.776;2023-04-08T03:23:39;101122.72;;;10.25;69.17
72548;BME280;60570;50.848;6.776;2023-04-08T03:24:39;101125.00;;;10.23;69.19
72548;BME280;60570;50.848;6.776;2023-04-08T03:25:41;101125.00;;;10.23;69.29
72548;BME280;60570;50.848;6.776;2023-04-08T03:26:41;101128.59;;;10.23;69.21
72548;BME280;60570;50.848;6.776;2023-04-08T03:27:43;101129.44;;;10.24;69.15
72548;BME280;60570;50.848;6.776;2023-04-08T03:28:44;101127.78;;;10.23;69.23
72548;BME280;60570;50.848;6.776;2023-04-08T03:29:45;101126.16;;;10.22;69.02
72548;BME280;60570;50.848;6.776;2023-04-08T03:30:48;101125.00;;;10.23;69.19
72548;BME280;60570;50.848;6.776;2023-04-08T03:31:50;101127.78;;;10.23;68.87
72548;BME280;60570;50.848;6.776;2023-04-08T03:32:50;101130.22;;;10.24;69.32
72548;BME280;60570;50.848;6.776;2023-04-08T03:33:52;101133.00;;;10.24;68.98
72548;BME280;60570;50.848;6.776;2023-04-08T03:34:53;101132.22;;;10.24;68.97
72548;BME280;60570;50.848;6.776;2023-04-08T03:35:55;101129.44;;;10.24;68.96
72548;BME280;60570;50.848;6.776;2023-04-08T03:36:55;101133.00;;;10.24;68.97
72548;BME280;60570;50.848;6.776;2023-04-08T03:37:57;101129.44;;;10.24;68.94
72548;BME280;60570;50.848;6.776;2023-04-08T03:38:58;101135.50;;;10.26;68.88
72548;BME280;60570;50.848;6.776;2023-04-08T03:40:00;101131.06;;;10.25;69.31
72548;BME280;60570;50.848;6.776;2023-04-08T03:41:01;101135.00;;;10.24;69.33
72548;BME280;60570;50.848;6.776;2023-04-08T03:42:02;101135.00;;;10.24;68.92
72548;BME280;60570;50.848;6.776;2023-04-08T03:43:03;101132.22;;;10.24;68.98
72548;BME280;60570;50.848;6.776;2023-04-08T03:44:06;101128.59;;;10.23;69.04
72548;BME280;60570;50.848;6.776;2023-04-08T03:45:07;101125.81;;;10.23;69.16
72548;BME280;60570;50.848;6.776;2023-04-08T03:46:10;101136.94;;;10.23;68.89
72548;BME280;60570;50.848;6.776;2023-04-08T03:47:11;101132.50;;;10.22;69.20
72548;BME280;60570;50.848;6.776;2023-04-08T03:48:12;101131.72;;;10.22;69.10
72548;BME280;60570;50.848;6.776;2023-04-08T03:49:13;101131.38;;;10.23;68.90
72548;BME280;60570;50.848;6.776;2023-04-08T03:50:15;101132.50;;;10.22;69.16
72548;BME280;60570;50.848;6.776;2023-04-08T03:51:15;101125.00;;;10.23;69.10
72548;BME280;60570;50.848;6.776;2023-04-08T03:52:17;101126.16;;;10.22;69.08
72548;BME280;60570;50.848;6.776;2023-04-08T03:53:17;101129.72;;;10.22;69.14
72548;BME280;60570;50.848;6.776;2023-04-08T03:54:19;101133.34;;;10.23;68.98
72548;BME280;60570;50.848;6.776;2023-04-08T03:55:20;101139.72;;;10.23;69.22
72548;BME280;60570;50.848;6.776;2023-04-08T03:56:21;101133.34;;;10.23;69.34
72548;BME280;60570;50.848;6.776;2023-04-08T03:57:22;101134.16;;;10.23;69.00
72548;BME280;60570;50.848;6.776;2023-04-08T03:58:24;101142.50;;;10.23;68.99
72548;BME280;60570;50.848;6.776;2023-04-08T03:59:25;101134.47;;;10.22;69.20
72548;BME280;60570;50.848;6.776;2023-04-08T04:00:26;101135.28;;;10.22;68.98
72548;BME280;60570;50.848;6.776;2023-04-08T04:01:28;101130.56;;;10.23;69.17
72548;BME280;60570;50.848;6.776;2023-04-08T04:02:31;101133.34;;;10.23;68.86
72548;BME280;60570;50.848;6.776;2023-04-08T04:03:32;101131.72;;;10.22;69.20
72548;BME280;60570;50.848;6.776;2023-04-08T04:04:33;101132.81;;;10.21;69.18
72548;BME280;60570;50.848;6.776;2023-04-08T04:05:36;101136.44;;;10.21;69.26
72548;BME280;60570;50.848;6.776;2023-04-08T04:06:37;101135.28;;;10.22;69.07
72548;BME280;60570;50.848;6.776;2023-04-08T04:07:38;101136.44;;;10.21;69.19
72548;BME280;60570;50.848;6.776;2023-04-08T04:08:40;101132.50;;;10.22;68.74
72548;BME280;60570;50.848;6.776;2023-04-08T04:09:40;101133.66;;;10.21;69.11
72548;BME280;60570;50.848;6.776;2023-04-08T04:10:42;101138.38;;;10.21;68.94
72548;BME280;60570;50.848;6.776;2023-04-08T04:11:43;101141.16;;;10.21;69.18
72548;BME280;60570;50.848;6.776;2023-04-08T04:12:44;101133.34;;;10.23;68.92
72548;BME280;60570;50.848;6.776;2023-04-08T04:13:46;101136.09;;;10.23;68.87
72548;BME280;60570;50.848;6.776;2023-04-08T04:14:48;101135.59;;;10.21;69.01
72548;BME280;60570;50.848;6.776;2023-04-08T04:15:48;101137.25;;;10.22;69.01
72548;BME280;60570;50.848;6.776;2023-04-08T04:16:51;101139.22;;;10.21;69.25
72548;BME280;60570;50.848;6.776;2023-04-08T04:17:52;101141.16;;;10.21;69.24
72548;BME280;60570;50.848;6.776;2023-04-08T04:18:54;101140.34;;;10.20;69.13
72548;BME280;60570;50.848;6.776;2023-04-08T04:19:55;101139.53;;;10.20;69.02
72548;BME280;60570;50.848;6.776;2023-04-08T04:20:56;101142.59;;;10.18;69.26
72548;BME280;60570;50.848;6.776;2023-04-08T04:21:57;101148.16;;;10.18;69.35
72548;BME280;60570;50.848;6.776;2023-04-08T04:22:59;101148.97;;;10.19;69.16
72548;BME280;60570;50.848;6.776;2023-04-08T04:23:59;101141.81;;;10.18;69.22
72548;BME280;60570;50.848;6.776;2023-04-08T04:25:01;101147.03;;;10.19;69.16
72548;BME280;60570;50.848;6.776;2023-04-08T04:26:07;101138.72;;;10.19;69.14
72548;BME280;60570;50.848;6.776;2023-04-08T04:27:08;101150.63;;;10.20;69.12
72548;BME280;60570;50.848;6.776;2023-04-08T04:28:09;101147.03;;;10.19;68.85
72548;BME280;60570;50.848;6.776;2023-04-08T04:29:11;101146.72;;;10.21;68.88
72548;BME280;60570;50.848;6.776;2023-04-08T04:30:11;101149.81;;;10.19;68.96
72548;BME280;60570;50.848;6.776;2023-04-08T04:31:18;101159.75;;;10.20;69.05
72548;BME280;60570;50.848;6.776;2023-04-08T04:32:21;101149.81;;;10.19;69.17
72548;BME280;60570;50.848;6.776;2023-04-08T04:33:23;101156.47;;;10.18;68.96
72548;BME280;60570;50.848;6.776;2023-04-08T04:34:23;101152.09;;;10.17;69.03
72548;BME280;60570;50.848;6.776;2023-04-08T04:35:25;101155.69;;;10.18;69.16
72548;BME280;60570;50.848;6.776;2023-04-08T04:36:26;101156.81;;;10.17;69.17
72548;BME280;60570;50.848;6.776;2023-04-08T04:37:27;101152.09;;;10.17;69.36
72548;BME280;60570;50.848;6.776;2023-04-08T04:38:28;101153.72;;;10.18;69.12
72548;BME280;60570;50.848;6.776;2023-04-08T04:39:30;101162.53;;;10.20;69.16
72548;BME280;60570;50.848;6.776;2023-04-08T04:40:31;101160.91;;;10.19;69.14
72548;BME280;60570;50.848;6.776;2023-04-08T04:41:32;101162.53;;;10.20;69.12
72548;BME280;60570;50.848;6.776;2023-04-08T04:42:34;101160.91;;;10.19;69.03
72548;BME280;60570;50.848;6.776;2023-04-08T04:43:36;101162.88;;;10.19;68.85
72548;BME280;60570;50.848;6.776;2023-04-08T04:44:37;101155.38;;;10.19;69.12
72548;BME280;60570;50.848;6.776;2023-04-08T04:45:38;101156.47;;;10.18;69.19
72548;BME280;60570;50.848;6.776;2023-04-08T04:46:39;101164.81;;;10.18;69.19
72548;BME280;60570;50.848;6.776;2023-04-08T04:47:42;101162.38;;;10.17;69.05
72548;BME280;60570;50.848;6.776;2023-04-08T04:48:43;101160.91;;;10.19;69.17
72548;BME280;60570;50.848;6.776;2023-04-08T04:49:44;101162.03;;;10.18;69.25
72548;BME280;60570;50.848;6.776;2023-04-08T04:50:53;101162.03;;;10.18;68.90
72548;BME280;60570;50.848;6.776;2023-04-08T04:51:55;101161.53;;;10.16;69.45
72548;BME280;60570;50.848;6.776;2023-04-08T04:52:56;101164.81;;;10.18;69.05
72548;BME280;60570;50.848;6.776;2023-04-08T04:53:57;101161.53;;;10.16;69.33
72548;BME280;60570;50.848;6.776;2023-04-08T04:54:58;101168.25;;;10.15;69.33
72548;BME280;60570;50.848;6.776;2023-04-08T04:56:00;101167.91;;;10.17;69.23
72548;BME280;60570;50.848;6.776;2023-04-08T04:57:01;101160.41;;;10.17;69.15
72548;BME280;60570;50.848;6.776;2023-04-08T04:58:02;101170.19;;;10.15;69.56
72548;BME280;60570;50.848;6.776;2023-04-08T04:59:03;101160.75;;;10.16;69.31
72548;BME280;60570;50.848;6.776;2023-04-08T05:00:06;101166.28;;;10.16;69.43
72548;BME280;60570;50.848;6.776;2023-04-08T05:01:07;101169.06;;;10.16;69.53
72548;BME280;60570;50.848;6.776;2023-04-08T05:02:09;101171.84;;;10.16;69.51
72548;BME280;60570;50.848;6.776;2023-04-08T05:03:11;101171.00;;;10.15;69.26
72548;BME280;60570;50.848;6.776;2023-04-08T05:04:13;101175.41;;;10.16;69.15
72548;BME280;60570;50.848;6.776;2023-04-08T05:05:14;101169.88;;;10.16;69.17
72548;BME280;60570;50.848;6.776;2023-04-08T05:06:15;101167.91;;;10.17;69.25
72548;BME280;60570;50.848;6.776;2023-04-08T05:07:16;101173.78;;;10.15;69.41
72548;BME280;60570;50.848;6.776;2023-04-08T05:08:18;101166.28;;;10.16;69.52
72548;BME280;60570;50.848;6.776;2023-04-08T05:09:19;101167.09;;;10.16;69.38
72548;BME280;60570;50.848;6.776;2023-04-08T05:10:20;101167.41;;;10.15;69.42
72548;BME280;60570;50.848;6.776;2023-04-08T05:11:21;101165.47;;;10.15;69.24
72548;BME280;60570;50.848;6.776;2023-04-08T05:12:23;101172.97;;;10.15;69.31
72548;BME280;60570;50.848;6.776;2023-04-08T05:13:23;101164.63;;;10.15;69.58
72548;BME280;60570;50.848;6.776;2023-04-08T05:14:27;101174.63;;;10.16;69.16
72548;BME280;60570;50.848;6.776;2023-04-08T05:15:28;101169.06;;;10.16;69.29
72548;BME280;60570;50.848;6.776;2023-04-08T05:16:30;101178.19;;;10.16;69.12
72548;BME280;60570;50.848;6.776;2023-04-08T05:17:31;101176.25;;;10.17;69.20
72548;BME280;60570;50.848;6.776;2023-04-08T05:18:34;101178.19;;;10.16;69.23
72548;BME280;60570;50.848;6.776;2023-04-08T05:19:35;101182.13;;;10.15;69.04
72548;BME280;60570;50.848;6.776;2023-04-08T05:20:37;101179.34;;;10.15;69.38
72548;BME280;60570;50.848;6.776;2023-04-08T05:21:38;101182.94;;;10.16;69.08
72548;BME280;60570;50.848;6.776;2023-04-08T05:22:39;101182.94;;;10.16;69.22
72548;BME280;60570;50.848;6.776;2023-04-08T05:23:41;101184.06;;;10.15;69.57
72548;BME280;60570;50.848;6.776;2023-04-08T05:24:43;101181.28;;;10.15;69.44
72548;BME280;60570;50.848;6.776;2023-04-08T05:25:44;101180.50;;;10.14;69.22